Time;durP1;ratioP1;P1;durP2;ratioP2;P2;SDS_P1;SDS_P2;PMS_P1;PMS_P2;Temp;Humidity;BMP_temperature;BMP_pressure;BME280_temperature;BME280_humidity;BME280_pressure;Samples;Min_cycle;Max_cycle;Signal;HPM_P1;HPM_P2
2023/06/28 00:02:22;;;;;;;2.78;2.25;;;;;;;18.41;73.18;96794.19;5061557;28;20196;-62
2023/06/28 00:04:52;;;;;;;5.95;2.60;;;;;;;18.39;73.99;96798.88;5053372;28;20243;-62
2023/06/28 00:07:18;;;;;;;2.72;2.30;;;;;;;18.39;74.04;96789.00;5069899;28;20209;-62
2023/06/28 00:09:44;;;;;;;2.35;2.13;;;;;;;18.35;74.06;96786.91;5075635;28;20241;-62
2023/06/28 00:12:11;;;;;;;2.78;2.58;;;;;;;18.35;74.10;96794.94;5057012;28;20210;-61
2023/06/28 00:14:38;;;;;;;3.83;2.38;;;;;;;18.35;73.97;96787.72;5047333;28;20232;-62
2023/06/28 00:17:04;;;;;;;3.78;2.33;;;;;;;18.38;74.54;96781.19;5065222;28;20545;-62
2023/06/28 00:19:32;;;;;;;3.13;2.33;;;;;;;18.32;73.68;96784.59;5076023;28;20210;-62
2023/06/28 00:22:01;;;;;;;4.32;2.28;;;;;;;18.30;73.19;96794.66;5075286;28;20234;-62
2023/06/28 00:24:28;;;;;;;3.40;2.28;;;;;;;18.29;71.29;96790.31;5059053;28;20206;-62
2023/06/28 00:26:54;;;;;;;5.63;2.70;;;;;;;18.13;72.80;96794.03;5058493;28;20242;-62
2023/06/28 00:29:21;;;;;;;3.40;2.50;;;;;;;18.09;72.67;96792.75;5058288;28;20213;-62
2023/06/28 00:31:47;;;;;;;3.08;2.30;;;;;;;18.11;73.75;96795.22;5058772;28;20208;-63
2023/06/28 00:34:14;;;;;;;2.60;2.40;;;;;;;18.08;73.52;96796.44;5058678;28;20231;-62
2023/06/28 00:36:41;;;;;;;6.38;2.47;;;;;;;18.06;72.25;96794.97;5058126;28;20230;-62
2023/06/28 00:39:09;;;;;;;2.28;1.90;;;;;;;17.94;73.15;96794.59;5059511;28;20634;-62
2023/06/28 00:41:35;;;;;;;2.08;1.98;;;;;;;17.95;73.15;96790.91;5058706;28;20233;-62
2023/06/28 00:44:02;;;;;;;3.30;2.45;;;;;;;17.92;73.26;96786.75;5059126;28;20290;-63
2023/06/28 00:46:29;;;;;;;2.33;2.15;;;;;;;17.83;73.85;96795.88;5059016;28;20674;-62
2023/06/28 00:48:55;;;;;;;3.08;2.30;;;;;;;17.84;73.52;96794.88;5049352;28;20542;-63
2023/06/28 00:51:23;;;;;;;3.97;2.25;;;;;;;17.78;73.22;96800.94;5050129;28;20199;-64
2023/06/28 00:53:53;;;;;;;2.45;2.00;;;;;;;17.77;72.67;96793.97;5075185;28;20280;-62
2023/06/28 00:56:21;;;;;;;2.30;2.08;;;;;;;17.76;71.74;96797.66;5071845;28;20670;-62
2023/06/28 00:58:48;;;;;;;3.92;2.47;;;;;;;17.67;71.61;96798.75;5069168;28;20583;-62
2023/06/28 01:01:15;;;;;;;2.42;2.22;;;;;;;17.67;74.17;96782.72;5073378;28;20631;-62
2023/06/28 01:03:43;;;;;;;2.78;1.90;;;;;;;17.69;74.93;96785.19;5046785;28;20200;-62
2023/06/28 01:06:12;;;;;;;2.88;2.50;;;;;;;17.69;75.13;96779.84;5050727;28;20541;-62
2023/06/28 01:08:39;;;;;;;2.45;2.20;;;;;;;17.74;74.24;96788.97;5053964;28;20231;-62
2023/06/28 01:11:06;;;;;;;2.83;2.38;;;;;;;17.74;71.99;96786.31;5065710;28;20218;-62
2023/06/28 01:13:36;;;;;;;4.90;2.60;;;;;;;17.74;72.51;96791.66;5061772;28;20764;-62
2023/06/28 01:16:02;;;;;;;3.28;2.30;;;;;;;17.65;74.96;96794.59;5072382;28;20214;-62
2023/06/28 01:18:33;;;;;;;2.60;2.17;;;;;;;17.70;74.46;96805.56;5070373;28;20292;-62
2023/06/28 01:21:01;;;;;;;3.17;2.05;;;;;;;17.70;72.60;96802.91;5064158;28;20630;-63
2023/06/28 01:23:29;;;;;;;4.85;2.55;;;;;;;17.54;71.59;96805.69;5050649;28;20544;-62
2023/06/28 01:25:56;;;;;;;2.30;1.95;;;;;;;17.51;75.01;96800.72;5077849;28;20206;-62
2023/06/28 01:28:24;;;;;;;3.72;2.08;;;;;;;17.48;76.27;96804.59;5077361;28;20213;-62
2023/06/28 01:30:52;;;;;;;4.05;2.13;;;;;;;17.47;75.67;96804.75;5074173;28;20582;-62
2023/06/28 01:33:20;;;;;;;4.78;2.28;;;;;;;17.42;76.06;96805.31;5062721;28;20229;-62
2023/06/28 01:35:47;;;;;;;2.47;2.28;;;;;;;17.35;76.62;96799.03;5048646;28;20623;-62
2023/06/28 01:38:14;;;;;;;2.50;2.30;;;;;;;17.26;76.34;96800.94;5058380;28;20210;-62
2023/06/28 01:40:43;;;;;;;3.58;2.17;;;;;;;17.29;75.16;96794.41;5053109;28;20206;-62
2023/06/28 01:43:09;;;;;;;5.03;2.28;;;;;;;17.23;74.04;96795.97;5074139;28;20206;-62
2023/06/28 01:45:37;;;;;;;2.67;2.10;;;;;;;17.18;73.60;96801.00;5037538;28;20207;-61
2023/06/28 01:48:04;;;;;;;2.47;2.00;;;;;;;17.09;75.72;96799.44;5067624;28;20210;-62
2023/06/28 01:50:32;;;;;;;5.43;2.38;;;;;;;17.05;77.38;96799.94;5058479;28;20204;-62
2023/06/28 01:53:01;;;;;;;5.05;2.25;;;;;;;16.93;76.95;96795.03;5050214;28;20216;-61
2023/06/28 01:55:29;;;;;;;3.03;1.98;;;;;;;16.96;75.61;96796.53;5037121;28;20294;-62
2023/06/28 01:57:57;;;;;;;2.92;2.30;;;;;;;16.88;77.46;96800.09;5067661;28;20211;-62
2023/06/28 02:00:23;;;;;;;4.50;2.45;;;;;;;16.88;76.51;96805.44;5046279;28;20545;-61
2023/06/28 02:02:52;;;;;;;5.90;2.70;;;;;;;16.88;76.49;96805.44;5050324;28;20202;-62
2023/06/28 02:05:19;;;;;;;3.90;2.35;;;;;;;16.79;77.48;96798.47;5076416;28;20202;-62
2023/06/28 02:07:46;;;;;;;3.05;2.30;;;;;;;16.71;75.74;96800.38;5076609;28;20222;-61
2023/06/28 02:10:12;;;;;;;2.95;2.20;;;;;;;16.74;76.22;96800.84;5076928;28;20217;-62
2023/06/28 02:12:39;;;;;;;4.43;2.22;;;;;;;16.64;75.23;96784.25;5047794;28;20207;-62
2023/06/28 02:15:12;;;;;;;3.15;2.40;;;;;;;16.51;75.55;96785.81;5067246;28;20259;-63
2023/06/28 02:17:39;;;;;;;2.63;2.22;;;;;;;16.55;74.97;96787.91;5077179;28;20222;-62
2023/06/28 02:20:10;;;;;;;2.72;2.05;;;;;;;16.56;75.29;96783.44;5081941;28;20213;-62
2023/06/28 02:22:36;;;;;;;5.65;2.50;;;;;;;16.49;78.08;96791.31;5057523;28;20243;-62
2023/06/28 02:25:03;;;;;;;3.30;2.33;;;;;;;16.48;77.31;96778.97;5069381;28;20544;-62
2023/06/28 02:27:31;;;;;;;3.22;2.10;;;;;;;16.49;76.50;96782.47;5050163;28;20212;-61
2023/06/28 02:29:58;;;;;;;3.78;2.30;;;;;;;16.42;78.37;96774.34;5050007;28;20211;-62
2023/06/28 02:32:30;;;;;;;2.80;2.13;;;;;;;16.42;78.64;96780.50;5043380;28;20210;-62
2023/06/28 02:34:56;;;;;;;3.08;2.28;;;;;;;16.43;80.64;96778.69;5054599;28;20219;-63
2023/06/28 02:37:23;;;;;;;3.10;2.60;;;;;;;16.40;81.26;96782.50;5050895;28;20199;-62
2023/06/28 02:39:49;;;;;;;2.15;2.05;;;;;;;16.39;81.10;96783.53;5042446;28;20588;-63
2023/06/28 02:42:16;;;;;;;4.60;2.42;;;;;;;16.40;77.59;96776.34;5047469;28;20636;-62
2023/06/28 02:44:44;;;;;;;3.17;2.05;;;;;;;16.30;77.56;96775.72;5048519;28;20233;-62
2023/06/28 02:47:11;;;;;;;2.70;2.40;;;;;;;16.31;77.56;96764.06;5035556;28;20298;-62
2023/06/28 02:49:41;;;;;;;2.45;2.25;;;;;;;16.23;77.67;96770.25;5062030;28;20206;-61
2023/06/28 02:52:10;;;;;;;2.30;2.10;;;;;;;16.28;81.45;96761.75;5065723;28;20213;-62
2023/06/28 02:54:36;;;;;;;2.53;2.13;;;;;;;16.31;80.97;96772.06;5050705;28;20694;-61
2023/06/28 02:57:08;;;;;;;2.90;2.33;;;;;;;16.30;81.18;96770.38;5065535;28;20202;-63
2023/06/28 02:59:34;;;;;;;5.22;2.55;;;;;;;16.36;80.74;96770.53;5071438;28;20211;-62
2023/06/28 03:02:01;;;;;;;3.45;2.03;;;;;;;16.29;81.02;96766.91;5055663;28;20199;-62
2023/06/28 03:04:28;;;;;;;3.38;2.30;;;;;;;16.24;80.83;96766.59;5059584;28;20203;-62
2023/06/28 03:06:59;;;;;;;3.03;2.05;;;;;;;16.28;79.08;96772.41;5064929;28;20215;-61
2023/06/28 03:09:26;;;;;;;5.70;2.60;;;;;;;16.25;81.83;96770.09;5042096;28;20207;-62
2023/06/28 03:11:52;;;;;;;5.70;2.40;;;;;;;16.29;81.85;96766.91;5043977;28;20207;-62
2023/06/28 03:14:18;;;;;;;3.53;2.20;;;;;;;16.29;82.44;96764.25;5035364;28;20704;-63
2023/06/28 03:16:45;;;;;;;2.47;2.28;;;;;;;16.24;79.94;96760.41;5047508;28;20207;-61
2023/06/28 03:19:12;;;;;;;3.38;2.53;;;;;;;16.25;81.12;96754.09;5068677;28;20246;-61
2023/06/28 03:21:38;;;;;;;2.55;2.35;;;;;;;16.24;80.97;96757.75;5044100;28;20691;-62
2023/06/28 03:24:07;;;;;;;2.55;2.35;;;;;;;16.22;81.66;96752.59;5035782;28;20236;-62
2023/06/28 03:26:34;;;;;;;3.03;2.08;;;;;;;16.28;82.33;96748.41;5036061;28;20629;-63
2023/06/28 03:29:01;;;;;;;2.53;2.30;;;;;;;16.24;82.38;96742.56;5059604;28;20276;-62
2023/06/28 03:31:31;;;;;;;4.83;2.50;;;;;;;16.30;82.46;96749.03;5060567;28;20203;-62
2023/06/28 03:33:58;;;;;;;4.38;2.58;;;;;;;16.35;82.35;96752.03;5049543;28;20688;-62
2023/06/28 03:36:27;;;;;;;2.83;2.50;;;;;;;16.33;82.43;96762.06;5052716;28;20214;-64
2023/06/28 03:38:54;;;;;;;5.10;2.63;;;;;;;16.34;81.29;96763.69;5035826;28;20208;-62
2023/06/28 03:41:22;;;;;;;3.53;2.58;;;;;;;16.39;81.71;96774.69;5035733;28;20656;-62
2023/06/28 03:43:48;;;;;;;2.90;2.45;;;;;;;16.38;82.08;96759.66;5042648;28;20642;-63
2023/06/28 03:46:15;;;;;;;2.78;2.45;;;;;;;16.41;80.70;96760.16;5042080;28;20218;-63
2023/06/28 03:48:42;;;;;;;2.70;2.50;;;;;;;16.48;82.67;96749.59;5034302;28;20242;-62
2023/06/28 03:51:10;;;;;;;4.60;2.30;;;;;;;16.43;82.72;96742.13;5037496;28;20218;-62
2023/06/28 03:53:38;;;;;;;7.35;2.35;;;;;;;16.39;79.62;96751.50;5062850;28;20208;-62
2023/06/28 03:56:05;;;;;;;3.35;2.53;;;;;;;16.48;82.49;96749.59;5036462;28;20203;-62
2023/06/28 03:58:33;;;;;;;4.35;2.80;;;;;;;16.55;83.15;96753.22;5063142;28;20214;-62
2023/06/28 04:01:02;;;;;;;2.80;2.55;;;;;;;16.59;82.21;96746.56;5061500;28;20218;-62
2023/06/28 04:03:28;;;;;;;2.80;2.20;;;;;;;16.66;80.79;96749.34;5068451;28;20211;-62
2023/06/28 04:05:56;;;;;;;3.97;2.83;;;;;;;16.64;81.28;96738.84;5060519;28;20211;-63
2023/06/28 04:08:26;;;;;;;4.18;2.42;;;;;;;16.67;82.60;96741.16;5074372;28;20630;-63
2023/06/28 04:10:53;;;;;;;5.25;2.65;;;;;;;16.74;82.63;96742.09;5058584;28;20207;-62
2023/06/28 04:13:19;;;;;;;4.90;2.50;;;;;;;16.79;82.85;96744.25;5047104;28;20203;-62
2023/06/28 04:15:47;;;;;;;4.25;2.75;;;;;;;16.83;81.19;96738.34;5054558;28;20222;-62
2023/06/28 04:18:14;;;;;;;3.50;2.05;;;;;;;16.84;81.06;96737.34;5054780;28;20206;-62
2023/06/28 04:20:40;;;;;;;3.15;2.47;;;;;;;16.91;82.10;96743.63;5045122;28;20233;-62
2023/06/28 04:23:08;;;;;;;3.85;2.50;;;;;;;16.96;82.72;96739.59;5054103;28;20251;-62
2023/06/28 04:25:35;;;;;;;4.80;2.90;;;;;;;16.97;81.87;96752.75;5070502;28;20203;-62
2023/06/28 04:28:01;;;;;;;2.80;2.30;;;;;;;17.01;83.25;96748.72;5069288;28;20203;-61
2023/06/28 04:30:31;;;;;;;3.60;3.30;;;;;;;17.09;81.63;96743.31;5071809;28;20214;-63
2023/06/28 04:33:04;;;;;;;5.10;3.65;;;;;;;17.12;83.31;96750.13;5046086;28;20222;-61
2023/06/28 04:35:35;;;;;;;3.55;3.00;;;;;;;17.16;82.79;96746.91;5054757;28;20227;-61
2023/06/28 04:38:03;;;;;;;3.30;2.88;;;;;;;17.21;83.49;96749.06;5054723;28;20214;-62
2023/06/28 04:40:30;;;;;;;2.90;2.60;;;;;;;17.25;83.63;96742.34;5054651;28;20301;-62
2023/06/28 04:42:56;;;;;;;4.50;2.88;;;;;;;17.29;84.97;96749.78;5054017;28;20311;-62
2023/06/28 04:45:35;;;;;;;3.13;2.40;;;;;;;17.25;78.86;96750.34;5054314;28;20207;-62
2023/06/28 04:48:03;;;;;;;4.00;2.20;;;;;;;17.35;81.81;96756.28;5054471;28;20207;-63
2023/06/28 04:50:29;;;;;;;2.50;2.30;;;;;;;17.41;80.96;96752.84;5044860;28;20211;-61
2023/06/28 04:52:56;;;;;;;2.70;2.22;;;;;;;17.40;80.72;96761.88;5034450;28;20230;-62
2023/06/28 04:55:22;;;;;;;3.30;2.50;;;;;;;17.47;82.96;96745.94;5052985;28;20230;-62
2023/06/28 04:57:49;;;;;;;5.13;2.35;;;;;;;17.50;84.52;96740.25;5058034;28;20218;-61
2023/06/28 05:00:19;;;;;;;2.42;2.22;;;;;;;17.52;84.55;96744.38;5054756;28;20222;-62
2023/06/28 05:02:45;;;;;;;2.65;2.28;;;;;;;17.57;82.34;96746.56;5052135;28;20689;-63
2023/06/28 05:05:14;;;;;;;2.60;2.40;;;;;;;17.50;80.04;96742.91;5044260;28;20203;-63
2023/06/28 05:07:42;;;;;;;3.28;2.67;;;;;;;17.60;83.23;96736.31;5057963;28;20222;-62
2023/06/28 05:10:10;;;;;;;5.30;2.70;;;;;;;17.65;84.56;96725.03;5058036;28;20203;-62
2023/06/28 05:12:36;;;;;;;4.07;2.85;;;;;;;17.68;81.59;96736.19;5044606;28;20214;-62
2023/06/28 05:15:06;;;;;;;3.67;2.60;;;;;;;17.76;81.05;96733.44;5058479;28;20692;-62
2023/06/28 05:17:32;;;;;;;4.15;2.10;;;;;;;17.82;76.84;96734.53;5059152;28;20534;-61
2023/06/28 05:19:59;;;;;;;5.95;2.50;;;;;;;17.85;77.04;96732.31;5058506;28;20285;-62
2023/06/28 05:22:34;;;;;;;4.97;2.70;;;;;;;17.87;78.24;96734.81;5057828;28;20242;-62
2023/06/28 05:25:02;;;;;;;3.45;2.53;;;;;;;17.90;78.79;96732.59;5058183;28;20347;-62
2023/06/28 05:27:29;;;;;;;4.38;2.90;;;;;;;17.94;80.42;96732.22;5057264;28;20218;-62
2023/06/28 05:29:56;;;;;;;2.58;2.38;;;;;;;18.02;77.04;96734.81;5057249;28;20207;-62
2023/06/28 05:32:24;;;;;;;2.90;2.33;;;;;;;18.05;75.37;96742.44;5057406;28;20218;-63
2023/06/28 05:34:53;;;;;;;3.83;2.58;;;;;;;18.01;73.03;96742.00;5045368;28;20668;-62
2023/06/28 05:37:20;;;;;;;3.40;2.58;;;;;;;18.01;72.31;96750.03;5057680;28;20210;-62
2023/06/28 05:39:50;;;;;;;4.88;2.60;;;;;;;18.04;78.03;96740.78;5057454;28;20654;-63
2023/06/28 05:42:17;;;;;;;2.78;2.58;;;;;;;18.05;77.13;96737.09;5058071;28;20265;-63
2023/06/28 05:44:44;;;;;;;2.80;2.60;;;;;;;18.05;80.80;96737.09;5057278;28;20252;-62
2023/06/28 05:47:10;;;;;;;2.53;2.33;;;;;;;18.08;81.09;96742.06;5045096;28;20207;-62
2023/06/28 05:49:37;;;;;;;3.17;2.70;;;;;;;18.14;77.67;96747.50;5055522;28;20264;-62
2023/06/28 05:52:05;;;;;;;5.68;2.78;;;;;;;18.21;75.36;96750.28;5037907;28;20298;-62
2023/06/28 05:54:33;;;;;;;4.35;2.35;;;;;;;18.21;74.74;96747.59;5055025;28;20625;-61
2023/06/28 05:57:01;;;;;;;5.32;2.42;;;;;;;18.22;73.86;96759.97;5055968;28;20211;-61
2023/06/28 05:59:31;;;;;;;3.97;2.28;;;;;;;18.27;75.45;96761.06;5059311;28;20579;-62
2023/06/28 06:01:57;;;;;;;3.03;2.40;;;;;;;18.33;80.89;96754.13;5048913;28;20214;-63
2023/06/28 06:04:24;;;;;;;3.83;2.63;;;;;;;18.38;81.45;96760.59;5065427;28;20241;-63
2023/06/28 06:06:51;;;;;;;3.42;2.70;;;;;;;18.37;76.14;96764.28;5096519;28;20195;-62
2023/06/28 06:09:20;;;;;;;3.13;2.83;;;;;;;18.38;72.37;96770.47;5088299;28;20215;-62
2023/06/28 06:11:46;;;;;;;3.95;2.53;;;;;;;18.41;73.48;96770.09;5054539;28;20200;-63
2023/06/28 06:14:15;;;;;;;3.22;2.45;;;;;;;18.41;74.00;96778.13;5045639;28;20634;-61
2023/06/28 06:16:42;;;;;;;3.50;2.55;;;;;;;18.42;75.17;96771.75;5077167;28;20271;-61
2023/06/28 06:19:08;;;;;;;3.95;2.60;;;;;;;18.42;77.00;96776.28;5062918;28;20800;-62
2023/06/28 06:21:35;;;;;;;4.10;2.42;;;;;;;18.43;74.30;96778.75;5065768;28;20702;-62
2023/06/28 06:24:07;;;;;;;3.33;2.72;;;;;;;18.43;77.39;96770.72;5043340;28;20658;-63
2023/06/28 06:26:34;;;;;;;4.50;2.90;;;;;;;18.43;78.95;96778.75;5045313;28;20234;-62
2023/06/28 06:29:00;;;;;;;3.13;2.80;;;;;;;18.39;80.05;96780.13;5058863;28;20221;-62
2023/06/28 06:31:28;;;;;;;2.33;2.13;;;;;;;18.39;80.41;96780.13;5073320;28;20562;-63
2023/06/28 06:33:56;;;;;;;3.45;2.80;;;;;;;18.37;78.72;96784.84;5053572;28;20222;-63
2023/06/28 06:36:23;;;;;;;3.85;2.67;;;;;;;18.38;75.00;96786.53;5062730;28;20237;-62
2023/06/28 06:38:49;;;;;;;2.85;2.60;;;;;;;18.37;75.75;96782.19;5078424;28;20214;-62
2023/06/28 06:41:16;;;;;;;4.30;2.42;;;;;;;18.32;80.61;96785.41;5058612;28;20204;-63
2023/06/28 06:43:42;;;;;;;2.90;2.58;;;;;;;18.32;79.58;96780.06;5073830;28;20214;-62
2023/06/28 06:46:08;;;;;;;5.65;2.60;;;;;;;18.26;76.60;96778.13;5076517;28;20211;-64
2023/06/28 06:48:36;;;;;;;5.35;2.83;;;;;;;18.23;77.37;96773.16;5057201;28;20636;-63
2023/06/28 06:51:04;;;;;;;6.72;2.70;;;;;;;18.22;82.86;96776.00;5056219;28;20203;-63
2023/06/28 06:53:31;;;;;;;2.97;2.70;;;;;;;18.25;82.79;96776.47;5048048;28;20212;-62
2023/06/28 06:55:59;;;;;;;6.20;2.97;;;;;;;18.28;82.93;96776.09;5036964;28;20293;-62
2023/06/28 06:58:26;;;;;;;4.45;2.70;;;;;;;18.32;84.95;96776.53;5048330;28;20212;-63
2023/06/28 07:00:53;;;;;;;3.45;2.60;;;;;;;18.35;81.74;96785.03;5063619;28;20264;-62
2023/06/28 07:03:19;;;;;;;3.92;2.45;;;;;;;18.38;79.35;96797.25;5048286;28;20199;-62
2023/06/28 07:05:47;;;;;;;2.90;2.60;;;;;;;18.42;78.83;96788.63;5036930;28;20222;-63
2023/06/28 07:08:14;;;;;;;4.05;2.72;;;;;;;18.47;80.41;96793.41;5047951;28;20208;-63
2023/06/28 07:10:43;;;;;;;3.88;2.67;;;;;;;18.51;83.53;96794.75;5063847;28;20213;-63
2023/06/28 07:13:11;;;;;;;3.90;2.80;;;;;;;18.55;82.43;96790.66;5040456;28;20204;-63
2023/06/28 07:15:37;;;;;;;4.55;2.63;;;;;;;18.61;82.39;96803.28;5042709;28;20238;-63
2023/06/28 07:18:05;;;;;;;4.45;2.97;;;;;;;18.54;73.78;96799.72;5075260;28;20213;-61
2023/06/28 07:20:33;;;;;;;4.03;2.50;;;;;;;18.59;71.12;96800.00;5075153;28;20654;-63
2023/06/28 07:23:01;;;;;;;3.42;2.53;;;;;;;18.65;70.74;96807.25;5075100;28;20246;-62
2023/06/28 07:25:27;;;;;;;5.07;2.78;;;;;;;18.73;70.46;96799.13;5062027;28;20207;-62
2023/06/28 07:27:54;;;;;;;4.93;2.25;;;;;;;18.83;73.11;96802.31;5075045;28;20210;-62
2023/06/28 07:30:20;;;;;;;3.88;2.40;;;;;;;18.93;70.02;96801.97;5058372;28;20209;-62
2023/06/28 07:32:49;;;;;;;4.63;2.78;;;;;;;19.03;69.70;96796.28;5045444;28;20581;-62
2023/06/28 07:35:17;;;;;;;2.60;2.40;;;;;;;19.09;69.35;96801.75;5048697;28;20314;-62
2023/06/28 07:37:43;;;;;;;3.83;2.70;;;;;;;19.20;68.22;96808.44;5047342;28;20636;-62
2023/06/28 07:40:13;;;;;;;2.60;2.40;;;;;;;19.28;68.11;96811.81;5041279;28;20568;-62
2023/06/28 07:42:41;;;;;;;6.30;3.28;;;;;;;19.29;63.54;96820.69;5065679;28;20206;-62
2023/06/28 07:45:09;;;;;;;4.38;2.72;;;;;;;19.28;62.13;96810.97;5057049;28;20206;-61
2023/06/28 07:47:36;;;;;;;5.25;2.75;;;;;;;19.38;63.49;96824.88;5066876;28;20206;-62
2023/06/28 07:50:03;;;;;;;2.88;2.35;;;;;;;19.43;64.94;96825.16;5050996;28;20291;-63
2023/06/28 07:52:29;;;;;;;3.25;2.75;;;;;;;19.42;64.28;96823.50;5060170;28;20206;-63
2023/06/28 07:54:55;;;;;;;3.05;2.53;;;;;;;19.47;64.41;96815.72;5055771;28;20552;-63
2023/06/28 07:57:23;;;;;;;5.57;2.92;;;;;;;19.44;63.40;96805.38;5067564;28;20214;-62
2023/06/28 07:59:50;;;;;;;5.22;2.42;;;;;;;19.51;65.13;96806.25;5074764;28;20232;-62
2023/06/28 08:02:17;;;;;;;4.72;2.70;;;;;;;19.47;65.03;96804.97;5062051;28;20203;-62
2023/06/28 08:04:46;;;;;;;3.10;2.40;;;;;;;19.54;64.83;96805.88;5044405;28;20203;-63
2023/06/28 08:07:12;;;;;;;9.77;2.85;;;;;;;19.57;64.27;96816.19;5054837;28;20543;-61
2023/06/28 08:09:41;;;;;;;3.90;2.63;;;;;;;19.64;65.52;96808.19;5054555;28;20661;-62
2023/06/28 08:12:08;;;;;;;6.30;3.10;;;;;;;19.66;64.98;96808.84;5048480;28;20203;-62
2023/06/28 08:14:36;;;;;;;5.00;2.63;;;;;;;19.71;65.04;96801.84;5053537;28;20230;-63
2023/06/28 08:17:03;;;;;;;2.65;2.40;;;;;;;19.78;64.75;96807.25;5054671;28;20658;-62
2023/06/28 08:19:30;;;;;;;3.08;2.38;;;;;;;19.84;65.03;96801.09;5054439;28;20210;-61
2023/06/28 08:21:58;;;;;;;4.85;2.85;;;;;;;19.91;65.14;96809.22;5053948;28;20246;-62
2023/06/28 08:24:24;;;;;;;4.35;2.88;;;;;;;19.90;63.45;96810.25;5036945;28;20215;-62
2023/06/28 08:26:51;;;;;;;2.53;2.33;;;;;;;19.96;63.91;96804.06;5049056;28;20207;-63
2023/06/28 08:29:17;;;;;;;4.38;2.40;;;;;;;19.98;63.19;96807.41;5053521;28;20539;-62
2023/06/28 08:31:45;;;;;;;3.08;2.25;;;;;;;20.10;64.11;96795.06;5043800;28;20215;-56
2023/06/28 08:34:19;;;;;;;3.80;3.00;;;;;;;20.14;65.42;96799.03;5041488;28;20214;-62
2023/06/28 08:36:46;;;;;;;5.28;2.63;;;;;;;20.20;65.16;96798.22;5054237;28;20615;-62
2023/06/28 08:39:12;;;;;;;3.20;2.65;;;;;;;20.21;63.67;96792.66;5054066;28;20206;-61
2023/06/28 08:41:41;;;;;;;3.83;2.78;;;;;;;20.17;61.56;96801.31;5056797;28;20222;-62
2023/06/28 08:44:10;;;;;;;4.93;2.80;;;;;;;20.29;62.24;96799.75;5051130;28;20223;-63
2023/06/28 08:46:37;;;;;;;3.92;2.58;;;;;;;20.31;61.60;96797.69;5072865;28;20206;-64
2023/06/28 08:49:05;;;;;;;4.35;2.85;;;;;;;20.20;58.59;96793.69;5078074;28;20222;-63
2023/06/28 08:51:33;;;;;;;6.55;2.70;;;;;;;20.31;59.13;96798.50;5066341;28;20719;-62
2023/06/28 08:54:00;;;;;;;3.60;2.38;;;;;;;20.43;59.40;96796.09;5054270;28;20211;-62
2023/06/28 08:56:27;;;;;;;2.58;2.38;;;;;;;20.52;60.07;96789.50;5053348;28;20322;-62
2023/06/28 08:58:54;;;;;;;5.28;2.83;;;;;;;20.62;59.18;96797.16;5049878;28;20675;-62
2023/06/28 09:01:22;;;;;;;2.67;2.42;;;;;;;20.71;58.89;96799.50;5077186;28;20642;-62
2023/06/28 09:03:48;;;;;;;6.10;2.78;;;;;;;20.89;59.43;96795.41;5072723;28;20292;-62
2023/06/28 09:06:16;;;;;;;4.10;2.60;;;;;;;21.15;58.51;96793.59;5073300;28;20214;-62
2023/06/28 09:08:44;;;;;;;3.60;2.60;;;;;;;21.56;57.42;96796.13;5070669;28;20206;-63
2023/06/28 09:11:11;;;;;;;5.53;2.67;;;;;;;22.12;59.90;96801.00;5072419;28;20207;-64
2023/06/28 09:13:38;;;;;;;3.60;2.63;;;;;;;22.67;55.79;96791.53;5062084;28;20210;-62
2023/06/28 09:16:08;;;;;;;3.17;2.60;;;;;;;23.24;54.29;96793.22;5077779;28;20247;-63
2023/06/28 09:18:34;;;;;;;5.22;3.20;;;;;;;23.31;52.16;96785.94;5077960;28;20207;-63
2023/06/28 09:21:01;;;;;;;4.55;3.08;;;;;;;23.60;51.47;96797.97;5064218;28;20210;-61
2023/06/28 09:23:30;;;;;;;3.72;2.70;;;;;;;23.63;48.36;96792.94;5063972;28;20235;-62
2023/06/28 09:25:58;;;;;;;6.35;2.97;;;;;;;23.77;51.18;96794.47;5051737;28;20206;-63
2023/06/28 09:28:26;;;;;;;5.28;2.60;;;;;;;23.98;51.00;96793.25;5063512;28;20203;-64
2023/06/28 09:30:53;;;;;;;8.60;3.40;;;;;;;23.97;50.12;96794.31;5065168;28;20210;-62
2023/06/28 09:33:21;;;;;;;5.28;2.80;;;;;;;24.07;51.30;96793.78;5062749;28;20210;-62
2023/06/28 09:35:48;;;;;;;6.28;2.85;;;;;;;24.15;51.69;96790.81;5052490;28;20256;-62
2023/06/28 09:38:16;;;;;;;3.78;2.97;;;;;;;23.89;49.85;96781.09;5064262;28;20206;-64
2023/06/28 09:40:44;;;;;;;4.15;2.70;;;;;;;23.97;50.35;96785.38;5077948;28;20202;-62
2023/06/28 09:43:15;;;;;;;4.60;2.95;;;;;;;23.97;50.70;96782.66;5062908;28;20215;-62
2023/06/28 09:45:43;;;;;;;4.10;2.55;;;;;;;24.00;50.42;96774.09;5058057;28;20206;-61
2023/06/28 09:48:09;;;;;;;3.83;2.90;;;;;;;23.94;49.66;96772.31;5043717;28;20212;-61
2023/06/28 09:50:37;;;;;;;3.90;2.67;;;;;;;24.05;48.95;96775.09;5047413;28;20211;-62
2023/06/28 09:53:06;;;;;;;6.03;3.20;;;;;;;24.19;50.58;96765.84;5044742;28;20202;-62
2023/06/28 09:55:33;;;;;;;5.28;2.78;;;;;;;24.42;50.58;96770.53;5068858;28;20206;-62
2023/06/28 09:58:01;;;;;;;5.30;2.83;;;;;;;24.56;49.98;96772.03;5045929;28;20583;-62
2023/06/28 10:00:29;;;;;;;3.55;2.75;;;;;;;24.66;47.57;96763.38;5067866;28;20671;-63
2023/06/28 10:02:57;;;;;;;5.18;2.67;;;;;;;24.70;47.26;96762.69;5063794;28;20210;-62
2023/06/28 10:05:24;;;;;;;4.70;2.80;;;;;;;24.81;47.98;96762.97;5065943;28;20206;-62
2023/06/28 10:07:51;;;;;;;5.72;2.85;;;;;;;24.96;46.68;96763.41;5043740;28;20303;-62
2023/06/28 10:10:18;;;;;;;2.70;2.50;;;;;;;25.05;46.63;96754.72;5056770;28;20218;-63
2023/06/28 10:12:46;;;;;;;3.00;2.47;;;;;;;25.15;45.89;96754.97;5047918;28;20202;-62
2023/06/28 10:15:20;;;;;;;4.68;2.78;;;;;;;25.30;45.58;96754.53;5065171;28;20225;-62
2023/06/28 10:17:47;;;;;;;4.57;2.63;;;;;;;25.55;46.20;96749.78;5049358;28;20682;-63
2023/06/28 10:20:14;;;;;;;3.28;2.33;;;;;;;25.64;45.28;96748.41;5064087;28;20207;-62
2023/06/28 10:22:40;;;;;;;4.85;3.20;;;;;;;25.60;44.80;96752.63;5036891;28;20270;-62
2023/06/28 10:25:08;;;;;;;3.38;2.70;;;;;;;25.79;45.15;96750.59;5049850;28;20222;-62
2023/06/28 10:27:36;;;;;;;4.00;2.60;;;;;;;25.88;44.17;96759.22;5050155;28;20218;-63
2023/06/28 10:30:04;;;;;;;2.40;2.20;;;;;;;26.02;43.47;96760.63;5072733;28;20194;-63
2023/06/28 10:32:33;;;;;;;3.08;2.40;;;;;;;26.02;41.97;96755.19;5050003;28;20241;-62
2023/06/28 10:35:00;;;;;;;3.80;2.78;;;;;;;25.68;42.22;96754.97;5061743;28;20207;-61
2023/06/28 10:37:27;;;;;;;3.83;2.70;;;;;;;25.59;46.65;96756.38;5053786;28;20295;-62
2023/06/28 10:39:54;;;;;;;3.53;2.85;;;;;;;25.44;45.53;96742.44;5042474;28;20593;-63
2023/06/28 10:42:21;;;;;;;3.50;2.30;;;;;;;25.35;44.05;96754.69;5043654;28;20211;-62
2023/06/28 10:44:54;;;;;;;4.40;2.88;;;;;;;25.49;44.40;96750.69;5069945;28;20292;-62
2023/06/28 10:47:21;;;;;;;2.42;2.15;;;;;;;25.62;43.90;96747.78;5068270;28;20213;-62
2023/06/28 10:50:09;;;;;;;2.85;2.30;;;;;;;25.79;45.75;96755.22;5040856;28;20583;-62
2023/06/28 10:52:37;;;;;;;4.95;2.80;;;;;;;25.90;43.12;96746.28;5062211;28;20215;-62
2023/06/28 10:55:11;;;;;;;5.03;2.72;;;;;;;26.10;42.72;96747.53;5060623;28;20601;-63
2023/06/28 10:57:38;;;;;;;4.75;2.60;;;;;;;26.28;43.48;96743.88;5051922;28;20222;-63
2023/06/28 11:00:10;;;;;;;3.50;2.70;;;;;;;26.35;43.14;96744.56;5083956;28;20206;-62
2023/06/28 11:02:54;;;;;;;2.20;2.00;;;;;;;26.39;42.90;96743.03;5064752;28;20548;-62
2023/06/28 11:05:42;;;;;;;2.50;2.30;;;;;;;26.08;40.33;96746.09;5047323;28;20240;-62
2023/06/28 11:08:10;;;;;;;2.47;2.28;;;;;;;26.18;42.00;96744.47;5050474;28;20214;-62
2023/06/28 11:10:39;;;;;;;4.03;2.30;;;;;;;26.38;41.87;96737.84;5059867;28;20234;-64
2023/06/28 11:13:09;;;;;;;4.97;2.47;;;;;;;26.31;39.35;96726.31;5034955;28;20257;-62
2023/06/28 11:15:38;;;;;;;5.22;2.33;;;;;;;26.62;41.19;96734.81;5063948;28;20647;-62
2023/06/28 11:18:10;;;;;;;4.18;2.78;;;;;;;26.27;39.33;96734.09;5064108;28;20226;-61
2023/06/28 11:20:47;;;;;;;4.97;2.70;;;;;;;26.37;40.29;96737.00;5058279;28;20238;-62
2023/06/28 11:23:23;;;;;;;4.28;2.50;;;;;;;26.19;39.04;96734.47;5043472;28;20234;-62
2023/06/28 11:25:55;;;;;;;5.18;2.50;;;;;;;25.85;41.42;96732.59;5041597;28;20229;-62
2023/06/28 11:28:28;;;;;;;3.30;2.40;;;;;;;25.81;42.17;96729.53;5041937;28;20208;-61
2023/06/28 11:30:54;;;;;;;4.40;3.05;;;;;;;25.99;41.84;96723.97;5046100;28;20528;-62
2023/06/28 11:33:22;;;;;;;3.97;2.67;;;;;;;26.36;43.26;96721.78;5042430;28;20216;-63
2023/06/28 11:35:51;;;;;;;3.92;2.67;;;;;;;26.77;42.68;96725.31;5063073;28;20264;-61
2023/06/28 11:38:18;;;;;;;4.03;2.47;;;;;;;27.09;41.95;96721.06;5052704;28;20222;-61